Karin S — V2BM6 — position and weather

sailwx.info

Track history (hours):
 
Tides and Currents Weather Stations Pressure Air Temp Water Temp Dewpoint Dewpoint Depression Visibility Wind Speed Wind Dir Waves Ship Positions

Karin S

Last reported at 2016-Sep-25 10:31 UTC. Time now 2016-Sep-30 20:22 UTC.
Position N 39°26' W 000°19'.

Length 141 m; draft 7.8 m.

Type: Cargo ship. MMSI: 304871000.

Date/timePositionNaut miles runAvg speedWind from/ knotsBaromVisibWave heightAir tempDewpointWater temp
2016-Sep-25 10:31N 39°26' W 000°19'2 0.2
2016-Sep-25 00:33N 39°24' W 000°18'0 0.1
2016-Sep-24 22:20N 39°24' W 000°18'0 0.0
2016-Sep-24 21:20N 39°24' W 000°18'0 0.0
2016-Sep-24 19:14N 39°24' W 000°18'0 0.0
2016-Sep-24 18:32N 39°24' W 000°18'0 0.0
2016-Sep-24 17:29N 39°24' W 000°18'0 0.2
2016-Sep-24 16:31N 39°24' W 000°18'2 0.3
2016-Sep-24 10:31N 39°26' W 000°19'0 0.0
2016-Sep-24 09:28N 39°26' W 000°19'0 0.0
2016-Sep-24 03:17N 39°26' W 000°19'0 0.0
2016-Sep-24 02:29N 39°26' W 000°19'0 0.0
2016-Sep-23 19:33N 39°26' W 000°19'0 0.0
2016-Sep-23 17:33N 39°26' W 000°19'0 0.0
2016-Sep-23 16:33N 39°26' W 000°19'85 8.5
2016-Sep-23 06:33N 38°05' E 000°15'2811.8
2016-Sep-23 04:09N 37°37' E 000°06'812.7
2016-Sep-23 03:33N 37°30' E 000°03'1212.4
2016-Sep-23 02:33N 37°18' W 000°01'1212.2
2016-Sep-23 01:33N 37°06' W 000°05'1212.1
2016-Sep-23 00:34N 36°54' W 000°08'1212.2
2016-Sep-22 23:33N 36°42' W 000°12'63 2.7
2016-Sep-22 00:18N 35°43' W 000°38'0 0.0
2016-Sep-21 23:18N 35°43' W 000°38'0 0.0
2016-Sep-21 19:33N 35°43' W 000°38'0 0.0
2016-Sep-21 16:30N 35°43' W 000°38'0 0.0
2016-Sep-21 08:19N 35°43' W 000°38'  
2016-Sep-17 22:31N 35°44' W 000°39'0 0.0
2016-Sep-17 13:32N 35°43' W 000°39'0 0.0
2016-Sep-17 12:33N 35°43' W 000°39'  
Track history (hours):
 
Tides and Currents Weather Stations Pressure Air Temp Water Temp Dewpoint Dewpoint Depression Visibility Wind Speed Wind Dir Waves Ship Positions

Karin S

Last reported at 2016-Sep-25 10:31 UTC. Time now 2016-Sep-30 20:22 UTC.
Position N 39°26' W 000°19'.

Length 141 m; draft 7.8 m.

Type: Cargo ship. MMSI: 304871000.

Date/timePositionNaut miles runAvg speedWind from/ knotsBaromVisibWave heightAir tempDewpointWater temp
2016-Sep-25 10:31N 39°26' W 000°19'2 0.2
2016-Sep-25 00:33N 39°24' W 000°18'0 0.1
2016-Sep-24 22:20N 39°24' W 000°18'0 0.0
2016-Sep-24 21:20N 39°24' W 000°18'0 0.0
2016-Sep-24 19:14N 39°24' W 000°18'0 0.0
2016-Sep-24 18:32N 39°24' W 000°18'0 0.0
2016-Sep-24 17:29N 39°24' W 000°18'0 0.2
2016-Sep-24 16:31N 39°24' W 000°18'2 0.3
2016-Sep-24 10:31N 39°26' W 000°19'0 0.0
2016-Sep-24 09:28N 39°26' W 000°19'0 0.0
2016-Sep-24 03:17N 39°26' W 000°19'0 0.0
2016-Sep-24 02:29N 39°26' W 000°19'0 0.0
2016-Sep-23 19:33N 39°26' W 000°19'0 0.0
2016-Sep-23 17:33N 39°26' W 000°19'0 0.0
2016-Sep-23 16:33N 39°26' W 000°19'85 8.5
2016-Sep-23 06:33N 38°05' E 000°15'2811.8
2016-Sep-23 04:09N 37°37' E 000°06'812.7
2016-Sep-23 03:33N 37°30' E 000°03'1212.4
2016-Sep-23 02:33N 37°18' W 000°01'1212.2
2016-Sep-23 01:33N 37°06' W 000°05'1212.1
2016-Sep-23 00:34N 36°54' W 000°08'1212.2
2016-Sep-22 23:33N 36°42' W 000°12'63 2.7
2016-Sep-22 00:18N 35°43' W 000°38'0 0.0
2016-Sep-21 23:18N 35°43' W 000°38'0 0.0
2016-Sep-21 19:33N 35°43' W 000°38'0 0.0
2016-Sep-21 16:30N 35°43' W 000°38'0 0.0
2016-Sep-21 08:19N 35°43' W 000°38'  
2016-Sep-17 22:31N 35°44' W 000°39'0 0.0
2016-Sep-17 13:32N 35°43' W 000°39'0 0.0
2016-Sep-17 12:33N 35°43' W 000°39'  

Dump ship's entire track history